createdAt,value
2019-02-07T00:00:35.089Z,32.30
2019-02-07T00:03:25.606Z,33.60
2019-02-07T00:06:14.459Z,35.00
2019-02-07T00:12:52.182Z,35.10
2019-02-07T00:15:41.627Z,34.93
2019-02-07T00:18:31.380Z,38.13
2019-02-07T00:21:23.429Z,38.37
2019-02-07T00:24:13.373Z,40.70
2019-02-07T00:27:04.567Z,37.57
2019-02-07T00:29:54.569Z,37.90
2019-02-07T00:32:42.886Z,40.93
2019-02-07T00:35:32.875Z,38.70
2019-02-07T00:38:22.466Z,38.63
2019-02-07T00:41:12.254Z,36.13
2019-02-07T00:44:01.868Z,36.47
2019-02-07T00:46:51.610Z,36.37
2019-02-07T00:49:42.241Z,35.27
2019-02-07T00:52:44.883Z,35.07
2019-02-07T00:55:23.627Z,35.13
2019-02-07T00:58:32.287Z,36.23
2019-02-07T01:01:22.141Z,33.10
2019-02-07T01:10:57.217Z,35.13
2019-02-07T01:13:47.238Z,37.60
2019-02-07T01:16:37.098Z,36.67
2019-02-07T01:19:26.934Z,37.27
2019-02-07T01:22:17.184Z,38.17
2019-02-07T01:25:46.916Z,36.83
2019-02-07T01:28:36.797Z,39.17
2019-02-07T01:31:26.530Z,40.10
2019-02-07T01:34:16.729Z,40.20
2019-02-07T01:37:08.849Z,39.93
2019-02-07T01:39:59.450Z,39.17
2019-02-07T01:42:49.648Z,39.13
2019-02-07T01:45:39.947Z,38.10
2019-02-07T01:48:30.204Z,38.33
2019-02-07T01:51:20.312Z,37.20
2019-02-07T01:54:10.392Z,39.83
2019-02-07T01:57:00.144Z,39.73
2019-02-07T01:59:49.644Z,39.03
2019-02-07T02:02:39.535Z,38.63
2019-02-07T02:06:08.641Z,38.40
2019-02-07T02:08:58.819Z,36.90
2019-02-07T02:11:48.786Z,38.13
2019-02-07T02:14:39.605Z,38.43
2019-02-07T02:17:29.699Z,39.10
2019-02-07T02:20:59.604Z,39.47
2019-02-07T02:23:49.942Z,36.57
2019-02-07T02:26:38.759Z,37.47
2019-02-07T02:29:29.051Z,36.87
2019-02-07T02:32:18.797Z,37.07
2019-02-07T02:35:08.676Z,37.77
2019-02-07T02:38:00.861Z,36.27
2019-02-07T02:40:50.302Z,37.73
2019-02-07T02:43:39.856Z,37.50
2019-02-07T02:46:29.673Z,38.37
2019-02-07T02:49:19.474Z,36.33
2019-02-07T02:52:09.502Z,35.90
2019-02-07T02:55:00.040Z,36.60
2019-02-07T02:57:50.638Z,39.20
2019-02-07T03:00:59.208Z,38.80
2019-02-07T03:03:55.560Z,38.30
2019-02-07T03:06:59.877Z,35.83
2019-02-07T03:10:08.311Z,34.20
2019-02-07T03:13:16.847Z,35.37
2019-02-07T03:16:25.610Z,33.00
2019-02-07T03:19:34.117Z,31.37
2019-02-07T03:22:42.987Z,32.60
2019-02-07T03:25:51.874Z,32.57
2019-02-07T03:29:01.203Z,31.97
2019-02-07T03:32:11.156Z,32.03
2019-02-07T03:35:19.594Z,30.70
2019-02-07T03:38:28.562Z,31.13
2019-02-07T03:41:37.623Z,31.57
2019-02-07T03:44:46.432Z,30.07
2019-02-07T03:47:55.200Z,29.73
2019-02-07T03:51:04.071Z,31.20
2019-02-07T03:54:02.452Z,30.80
2019-02-07T03:57:11.288Z,31.00
2019-02-07T04:00:20.064Z,31.03
2019-02-07T04:03:17.710Z,32.90
2019-02-07T04:06:27.265Z,30.83
2019-02-07T04:09:36.087Z,32.53
2019-02-07T04:12:35.027Z,29.43
2019-02-07T04:15:36.771Z,31.07
2019-02-07T04:18:45.567Z,28.87
2019-02-07T04:21:54.280Z,29.73
2019-02-07T04:25:03.429Z,30.53
2019-02-07T04:28:11.930Z,30.67
2019-02-07T04:31:20.378Z,29.77
2019-02-07T04:34:28.888Z,30.13
2019-02-07T04:37:37.667Z,29.90
2019-02-07T04:40:35.495Z,30.70
2019-02-07T04:43:44.331Z,29.90
2019-02-07T04:46:53.051Z,29.87
2019-02-07T04:50:01.666Z,29.57
2019-02-07T04:53:10.847Z,30.73
2019-02-07T04:56:19.608Z,29.60
2019-02-07T04:59:17.483Z,29.67
2019-02-07T05:02:26.254Z,30.40
2019-02-07T05:05:34.865Z,30.73
2019-02-07T05:09:04.018Z,29.70
2019-02-07T05:11:59.597Z,29.43
2019-02-07T05:15:08.131Z,28.40
2019-02-07T05:18:16.826Z,29.37
2019-02-07T05:21:25.386Z,29.10
2019-02-07T05:24:34.147Z,28.87
2019-02-07T05:27:42.655Z,28.67
2019-02-07T05:30:51.536Z,28.37
2019-02-07T05:34:00.400Z,28.60
2019-02-07T05:37:09.110Z,28.60
2019-02-07T05:40:17.559Z,28.27
2019-02-07T05:43:48.250Z,27.67
2019-02-07T05:47:15.611Z,28.43
2019-02-07T05:50:25.028Z,28.80
2019-02-07T05:53:33.641Z,28.27
2019-02-07T05:56:42.567Z,27.30
2019-02-07T05:59:52.146Z,27.40
2019-02-07T06:03:01.119Z,26.53
2019-02-07T06:06:09.813Z,26.70
2019-02-07T06:09:18.320Z,25.40
2019-02-07T06:12:27.012Z,25.80
2019-02-07T06:15:35.588Z,25.00
2019-02-07T06:18:47.065Z,25.77
2019-02-07T06:21:48.129Z,25.53
2019-02-07T06:24:46.887Z,24.80
2019-02-07T06:27:58.590Z,23.30
2019-02-07T06:31:07.428Z,25.47
2019-02-07T06:34:16.589Z,24.23
2019-02-07T06:37:25.577Z,23.90
2019-02-07T06:40:34.949Z,23.37
2019-02-07T06:43:43.474Z,23.17
2019-02-07T06:46:52.658Z,22.60
2019-02-07T06:50:01.247Z,23.77
2019-02-07T06:53:11.292Z,21.80
2019-02-07T06:56:21.564Z,22.83
2019-02-07T06:59:30.328Z,24.03
2019-02-07T07:02:38.812Z,23.73
2019-02-07T07:05:47.948Z,22.83
2019-02-07T07:08:56.810Z,22.90
2019-02-07T07:12:05.736Z,22.07
2019-02-07T07:15:14.589Z,22.83
2019-02-07T07:18:25.126Z,23.10
2019-02-07T07:21:34.610Z,24.07
2019-02-07T07:24:43.176Z,23.67
2019-02-07T07:27:52.264Z,23.50
2019-02-07T07:31:01.315Z,24.53
2019-02-07T07:34:01.517Z,22.80
2019-02-07T07:37:09.195Z,25.00
2019-02-07T07:40:18.260Z,24.77
2019-02-07T07:43:27.313Z,24.57
2019-02-07T07:46:28.025Z,25.40
2019-02-07T07:49:28.967Z,25.93
2019-02-07T07:52:37.557Z,25.37
2019-02-07T07:55:46.517Z,25.83
2019-02-07T07:58:55.345Z,24.37
2019-02-07T08:02:25.208Z,25.20
2019-02-07T08:05:21.860Z,24.10
2019-02-07T08:08:30.759Z,23.63
2019-02-07T08:11:39.272Z,25.37
2019-02-07T08:14:48.299Z,24.07
2019-02-07T08:17:58.003Z,25.37
2019-02-07T08:21:06.538Z,23.70
2019-02-07T08:24:14.971Z,25.97
2019-02-07T08:27:24.382Z,26.37
2019-02-07T08:30:53.843Z,25.13
2019-02-07T08:34:03.172Z,25.70
2019-02-07T08:37:12.289Z,24.83
2019-02-07T08:40:21.631Z,25.80
2019-02-07T08:43:30.437Z,24.60
2019-02-07T08:46:39.217Z,24.13
2019-02-07T08:49:48.323Z,23.77
2019-02-07T08:52:57.757Z,24.00
2019-02-07T08:56:06.191Z,24.33
2019-02-07T08:59:15.573Z,24.00
2019-02-07T09:02:24.613Z,23.33
2019-02-07T09:05:24.559Z,23.83
2019-02-07T09:08:34.785Z,24.30
2019-02-07T09:11:38.849Z,24.23
2019-02-07T09:15:06.835Z,24.47
2019-02-07T09:18:34.516Z,24.20
2019-02-07T09:21:43.599Z,23.47
2019-02-07T09:24:52.045Z,24.20
2019-02-07T09:28:01.260Z,22.77
2019-02-07T09:31:10.085Z,24.00
2019-02-07T09:34:37.842Z,24.20
2019-02-07T09:38:05.568Z,23.23
2019-02-07T09:41:10.878Z,23.33
2019-02-07T09:44:19.312Z,21.67
2019-02-07T09:47:28.205Z,22.33
2019-02-07T09:50:37.312Z,20.73
2019-02-07T09:54:05.211Z,19.80
2019-02-07T09:57:10.986Z,19.50
2019-02-07T10:00:19.694Z,18.10
2019-02-07T10:03:19.213Z,18.83
2019-02-07T10:06:28.504Z,18.37
2019-02-07T10:09:37.342Z,18.30
2019-02-07T10:12:46.456Z,18.40
2019-02-07T10:15:55.442Z,18.67
2019-02-07T10:19:04.142Z,19.90
2019-02-07T10:22:13.718Z,18.83
2019-02-07T10:25:22.623Z,18.73
2019-02-07T10:28:31.688Z,18.60
2019-02-07T10:31:41.297Z,18.37
2019-02-07T10:34:50.815Z,18.07
2019-02-07T10:38:01.596Z,18.90
2019-02-07T10:41:10.528Z,18.20
2019-02-07T10:44:19.411Z,18.40
2019-02-07T10:47:30.484Z,20.13
2019-02-07T10:50:39.514Z,18.73
2019-02-07T10:53:36.326Z,18.83
2019-02-07T10:56:45.770Z,19.73
2019-02-07T11:03:11.880Z,19.40
2019-02-07T11:06:21.676Z,19.30
2019-02-07T11:09:49.420Z,19.67
2019-02-07T11:12:58.340Z,19.00
2019-02-07T11:16:06.804Z,17.57
2019-02-07T11:19:09.281Z,19.13
2019-02-07T11:22:37.026Z,17.00
2019-02-07T11:26:05.135Z,19.60
2019-02-07T11:29:32.868Z,18.70
2019-02-07T11:32:30.114Z,30.33
2019-02-07T11:35:39.180Z,22.43
2019-02-07T11:38:47.866Z,17.73
2019-02-07T11:41:56.308Z,15.37
2019-02-07T11:44:55.311Z,16.00
2019-02-07T11:47:59.298Z,14.90
2019-02-07T11:51:08.086Z,13.30
2019-02-07T11:54:17.143Z,13.83
2019-02-07T11:57:25.997Z,13.40
2019-02-07T12:00:55.633Z,13.20
2019-02-07T12:04:05.048Z,13.13
2019-02-07T12:07:13.496Z,13.50
2019-02-07T12:10:13.329Z,14.03
2019-02-07T12:13:22.064Z,13.57
2019-02-07T12:16:30.681Z,13.90
2019-02-07T12:19:30.527Z,13.73
2019-02-07T12:22:39.296Z,14.07
2019-02-07T12:25:48.155Z,13.87
2019-02-07T12:28:56.872Z,14.17
2019-02-07T12:32:26.332Z,14.70
2019-02-07T12:35:37.159Z,14.37
2019-02-07T12:38:46.267Z,14.17
2019-02-07T12:41:55.217Z,15.30
2019-02-07T12:45:04.447Z,14.43
2019-02-07T12:48:13.612Z,15.27
2019-02-07T12:51:22.054Z,15.90
2019-02-07T12:54:32.523Z,22.77
2019-02-07T12:57:41.460Z,23.33
2019-02-07T13:00:50.222Z,22.97
2019-02-07T13:03:59.314Z,24.23
2019-02-07T13:07:29.060Z,24.37
2019-02-07T13:10:37.681Z,25.77
2019-02-07T13:13:47.308Z,24.47
2019-02-07T13:16:56.098Z,24.20
2019-02-07T13:20:04.599Z,24.73
2019-02-07T13:23:13.603Z,25.73
2019-02-07T13:26:22.648Z,24.10
2019-02-07T13:29:31.280Z,25.23
2019-02-07T13:32:28.314Z,25.13
2019-02-07T13:35:37.241Z,24.40
2019-02-07T13:38:45.882Z,25.37
2019-02-07T13:41:54.448Z,24.93
2019-02-07T13:45:03.217Z,26.10
2019-02-07T13:48:02.247Z,27.03
2019-02-07T13:51:10.783Z,26.70
2019-02-07T13:54:19.219Z,28.13
2019-02-07T13:57:28.113Z,27.40
2019-02-07T14:00:36.716Z,26.90
2019-02-07T14:03:45.778Z,26.60
2019-02-07T14:06:54.239Z,27.50
2019-02-07T14:10:03.039Z,28.70
2019-02-07T14:13:11.927Z,28.87
2019-02-07T14:16:39.545Z,29.37
2019-02-07T14:19:48.546Z,29.43
2019-02-07T14:22:57.478Z,29.60
2019-02-07T14:26:06.158Z,30.33
2019-02-07T14:29:14.703Z,30.97
2019-02-07T14:32:23.926Z,31.80
2019-02-07T14:35:51.769Z,30.73
2019-02-07T14:39:00.609Z,31.30
2019-02-07T14:42:09.413Z,31.00
2019-02-07T14:45:19.179Z,30.23
2019-02-07T14:51:44.943Z,30.63
2019-02-07T14:54:34.887Z,30.93
2019-02-07T14:57:25.110Z,31.10
2019-02-07T15:00:54.535Z,33.10
2019-02-07T15:03:44.991Z,32.90
2019-02-07T15:06:34.532Z,32.20
2019-02-07T15:09:43.908Z,31.97
2019-02-07T15:12:33.781Z,32.33
2019-02-07T15:15:24.854Z,31.83
2019-02-07T15:18:14.797Z,33.00
2019-02-07T15:21:27.246Z,32.77
2019-02-07T15:24:17.312Z,33.13
2019-02-07T15:27:07.482Z,33.73
2019-02-07T15:33:25.231Z,33.53
2019-02-07T15:36:15.025Z,32.57
2019-02-07T15:39:44.142Z,32.60
2019-02-07T15:42:53.385Z,33.67
2019-02-07T15:45:43.630Z,34.63
2019-02-07T15:48:33.624Z,34.83
2019-02-07T15:51:42.033Z,34.70
2019-02-07T15:54:32.537Z,34.20
2019-02-07T15:58:01.856Z,34.80
2019-02-07T16:01:11.243Z,34.00
2019-02-07T16:04:21.229Z,26.57
2019-02-07T16:07:30.424Z,20.27
2019-02-07T16:10:20.459Z,11.43
2019-02-07T16:16:39.946Z,8.63
2019-02-07T16:19:48.928Z,9.23
2019-02-07T16:22:59.014Z,8.63
2019-02-07T16:25:49.966Z,7.60
2019-02-07T16:28:43.339Z,7.40
2019-02-07T16:31:52.650Z,7.20
2019-02-07T16:34:43.248Z,7.27
2019-02-07T16:37:32.900Z,7.50
2019-02-07T16:46:54.583Z,7.20
2019-02-07T16:49:46.583Z,7.40
2019-02-07T16:52:36.510Z,7.33
2019-02-07T16:55:26.495Z,7.07
2019-02-07T16:58:16.493Z,7.03
2019-02-07T17:01:45.895Z,7.60
2019-02-07T17:04:35.537Z,7.23
2019-02-07T17:07:25.423Z,7.43
2019-02-07T17:10:54.891Z,6.73
2019-02-07T17:17:01.904Z,6.47
2019-02-07T17:19:51.472Z,6.67
2019-02-07T17:22:42.374Z,6.47
2019-02-07T17:25:32.382Z,6.83
2019-02-07T17:28:22.549Z,6.73
2019-02-07T17:31:12.815Z,6.70
2019-02-07T17:34:04.739Z,6.93
2019-02-07T17:36:55.014Z,6.40
2019-02-07T17:39:44.922Z,6.70
2019-02-07T17:45:44.422Z,5.60
2019-02-07T17:48:34.755Z,6.40
2019-02-07T17:51:24.455Z,5.87
2019-02-07T17:54:18.898Z,6.00
2019-02-07T17:57:06.239Z,6.27
2019-02-07T17:59:56.099Z,6.03
2019-02-07T18:02:45.692Z,5.93
2019-02-07T18:05:35.776Z,5.17
2019-02-07T18:08:25.458Z,5.40
2019-02-07T18:11:15.371Z,5.63
2019-02-07T18:14:44.510Z,6.00
2019-02-07T18:17:34.477Z,8.53
2019-02-07T18:20:24.495Z,6.33
2019-02-07T18:23:14.198Z,7.10
2019-02-07T18:26:03.846Z,6.50
2019-02-07T18:28:53.725Z,5.80
2019-02-07T18:31:43.593Z,6.77
2019-02-07T18:34:33.886Z,6.53
2019-02-07T18:37:24.146Z,6.00
2019-02-07T18:40:32.949Z,6.50
2019-02-07T18:43:24.079Z,6.00
2019-02-07T18:46:14.506Z,5.87
2019-02-07T18:49:04.674Z,6.60
2019-02-07T18:51:55.726Z,6.23
2019-02-07T18:54:45.749Z,5.80
2019-02-07T18:57:35.861Z,6.30
2019-02-07T19:00:45.670Z,6.80
2019-02-07T19:03:35.555Z,8.50
2019-02-07T19:06:27.465Z,12.40
2019-02-07T19:09:17.258Z,13.93
2019-02-07T19:12:06.776Z,10.57
2019-02-07T19:14:56.320Z,10.20
2019-02-07T19:17:46.512Z,8.73
2019-02-07T19:20:36.377Z,7.27
2019-02-07T19:23:25.977Z,6.80
2019-02-07T19:26:15.432Z,7.70
2019-02-07T19:29:44.549Z,7.60
2019-02-07T19:32:34.023Z,7.73
2019-02-07T19:35:23.630Z,8.23
2019-02-07T19:38:13.441Z,8.20
2019-02-07T19:41:03.596Z,8.20
2019-02-07T19:43:53.198Z,8.97
2019-02-07T19:46:44.744Z,8.10
2019-02-07T19:49:34.824Z,8.90
2019-02-07T19:52:25.192Z,8.23
2019-02-07T19:55:17.350Z,8.67
2019-02-07T19:58:07.198Z,8.97
2019-02-07T20:00:57.364Z,8.90
2019-02-07T20:03:47.485Z,9.43
2019-02-07T20:06:38.223Z,9.40
2019-02-07T20:09:27.666Z,9.70
2019-02-07T20:12:17.677Z,9.67
2019-02-07T20:15:29.791Z,9.40
2019-02-07T20:18:19.695Z,10.27
2019-02-07T20:21:09.754Z,9.83
2019-02-07T20:23:59.700Z,9.80
2019-02-07T20:26:49.220Z,9.97
2019-02-07T20:29:38.676Z,11.03
2019-02-07T20:32:28.371Z,9.13
2019-02-07T20:35:18.417Z,9.07
2019-02-07T20:38:48.533Z,8.77
2019-02-07T20:41:38.223Z,8.10
2019-02-07T20:44:27.647Z,8.40
2019-02-07T20:47:17.816Z,8.37
2019-02-07T20:50:47.596Z,8.23
2019-02-07T20:53:37.725Z,8.03
2019-02-07T20:56:27.218Z,7.73
2019-02-07T20:59:17.381Z,7.77
2019-02-07T21:02:07.904Z,7.97
2019-02-07T21:04:58.380Z,8.27
2019-02-07T21:07:47.810Z,7.90
2019-02-07T21:10:38.169Z,8.23
2019-02-07T21:13:29.975Z,9.87
2019-02-07T21:16:42.344Z,9.70
2019-02-07T21:19:32.159Z,8.80
2019-02-07T21:22:22.247Z,8.83
2019-02-07T21:25:15.114Z,8.60
2019-02-07T21:28:25.771Z,9.30
2019-02-07T21:31:15.754Z,8.90
2019-02-07T21:34:24.686Z,8.63
2019-02-07T21:37:14.569Z,8.80
2019-02-07T21:40:46.455Z,7.90
2019-02-07T21:43:36.432Z,7.90
2019-02-07T21:46:26.921Z,7.80
2019-02-07T21:49:17.051Z,8.00
2019-02-07T21:52:06.884Z,8.50
2019-02-07T21:54:57.121Z,8.60
2019-02-07T21:57:47.460Z,8.73
2019-02-07T22:00:39.549Z,8.97
2019-02-07T22:03:28.975Z,8.80
2019-02-07T22:06:18.867Z,9.27
2019-02-07T22:09:51.222Z,9.60
2019-02-07T22:12:59.876Z,9.93
2019-02-07T22:15:51.427Z,10.37
2019-02-07T22:18:42.005Z,9.70
2019-02-07T22:21:32.270Z,10.20
2019-02-07T22:24:22.084Z,10.87
2019-02-07T22:27:12.264Z,11.40
2019-02-07T22:33:51.673Z,11.40
2019-02-07T22:36:41.385Z,11.23
2019-02-07T22:39:32.090Z,10.87
2019-02-07T22:42:23.640Z,10.23
2019-02-07T22:45:32.942Z,9.50
2019-02-07T22:48:22.989Z,10.20
2019-02-07T22:51:11.264Z,9.40
2019-02-07T22:54:01.348Z,9.10
2019-02-07T22:57:10.483Z,8.60
2019-02-07T23:00:00.662Z,8.47
2019-02-07T23:02:51.390Z,8.20
2019-02-07T23:05:41.080Z,7.87
2019-02-07T23:08:31.258Z,7.60
2019-02-07T23:11:21.304Z,7.47
2019-02-07T23:14:11.536Z,7.07
2019-02-07T23:17:01.366Z,6.63
2019-02-07T23:20:10.688Z,6.83
2019-02-07T23:23:05.340Z,6.93
2019-02-07T23:25:52.978Z,6.70
2019-02-07T23:28:43.060Z,6.67
2019-02-07T23:31:33.236Z,6.30
2019-02-07T23:34:23.170Z,6.17
2019-02-07T23:37:13.338Z,6.07
2019-02-07T23:40:03.621Z,6.07
2019-02-07T23:42:53.814Z,6.30
2019-02-07T23:45:44.231Z,6.10
2019-02-07T23:48:45.719Z,6.10
2019-02-07T23:51:35.341Z,6.10
2019-02-07T23:54:24.768Z,6.33
2019-02-07T23:57:14.896Z,6.50
